Santa Ana, Argentina
Current Conditions -  °F | °C
As of 1:00 AM on Saturday 25 Oct 2014 (Local Time) from SARP Reporting Station
Clear Clear  
Wind Chill: 25°   Ceiling: Unl
Heat Index: 26°   Visibility: 6mi
Dew Point: 15°   Wind: 3mph
Humidity: 54%   Direction: 110°ESE
Pressure: 29.88"   Gusts: NA
Location:  27.37°S, 55.57°W
Report Text: SARP 250400Z 11003KT CAVOK 25/15 Q1012
Loading
Personal Weather Stations






























Interactive Weather Map
Tropical Storm Tracking
New forecast layout! Learn more

10-Day Weather Forecast

Advertisements
Track Severe Weather on mobile